Terminal Aerodrome Forecast
Issued by NWS El Paso, TX

Home | Current Version | Previous Version | Text Only | Print | Product List | Glossary On
Versions: 1 2 3 4 5 6 7 8 9 10 11 12 13 14
000
FTUS44 KEPZ 112300
TAFELP
TAF
KELP 112333Z 1200/1224 09011KT P6SM FEW100 SCT250
     FM120900 07007KT P6SM FEW140 FEW250
     FM122100 12009KT P6SM VCTS SCT070CB SCT250=

USA.gov is the U.S. government's official web portal to all federal, state and local government web resources and services.